Time;durP1;ratioP1;P1;durP2;ratioP2;P2;SDS_P1;SDS_P2;PMS_P1;PMS_P2;Temp;Humidity;BMP_temperature;BMP_pressure;BME280_temperature;BME280_humidity;BME280_pressure;Samples;Min_cycle;Max_cycle;Signal;HPM_P1;HPM_P2
2022/06/02 00:02:23;;;;;;;;;42.00;35.00;;;;;25.71;52.55;99323.41;4957996;28;8873;-87
2022/06/02 00:05:03;;;;;;;;;42.50;36.75;;;;;25.70;52.18;99321.69;4908287;28;8843;-85
2022/06/02 00:07:47;;;;;;;;;39.00;35.25;;;;;25.71;52.17;99326.09;4971843;28;8851;-85
2022/06/02 00:10:27;;;;;;;;;29.50;27.75;;;;;25.68;51.86;99312.91;4969876;28;8878;-85
2022/06/02 00:13:05;;;;;;;;;34.50;31.25;;;;;25.64;51.57;99319.44;4954053;28;8851;-85
2022/06/02 00:15:40;;;;;;;;;26.00;25.25;;;;;25.61;51.69;99308.94;4979159;28;8969;-85
2022/06/02 00:18:17;;;;;;;;;32.00;27.50;;;;;25.57;51.56;99307.44;4927974;28;8866;-86
2022/06/02 00:20:51;;;;;;;;;26.00;26.00;;;;;25.54;51.79;99308.50;4976471;28;9011;-85
2022/06/02 00:23:43;;;;;;;;;27.75;27.75;;;;;25.53;51.97;99297.94;4960856;28;8963;-84
2022/06/02 00:26:27;;;;;;;;;29.50;29.25;;;;;25.49;51.87;99298.13;4944808;28;8915;-86
2022/06/02 00:29:08;;;;;;;;;30.25;30.25;;;;;25.44;51.88;99292.25;4954991;28;9592;-85
2022/06/02 00:31:46;;;;;;;;;30.75;29.50;;;;;25.40;52.12;99292.53;4977903;28;8865;-85
2022/06/02 00:34:21;;;;;;;;;25.80;24.60;;;;;25.34;52.24;99280.44;4991873;28;8910;-87
2022/06/02 00:37:05;;;;;;;;;26.25;26.25;;;;;25.29;52.03;99283.44;4995917;28;8886;-74
2022/06/02 00:39:35;;;;;;;;;22.25;21.50;;;;;25.24;52.39;99284.69;5065828;28;8855;-74
2022/06/02 00:42:17;;;;;;;;;29.75;28.50;;;;;25.23;52.23;99289.16;5088235;28;8878;-83
2022/06/02 00:44:55;;;;;;;;;32.00;31.00;;;;;25.21;52.30;99280.34;5091254;28;8855;-82
2022/06/02 00:47:36;;;;;;;;;25.00;25.00;;;;;25.19;52.21;99284.94;5092567;28;8896;-82
2022/06/02 00:50:11;;;;;;;;;26.50;25.75;;;;;25.15;52.41;99282.59;5075598;28;8878;-85
2022/06/02 00:52:52;;;;;;;;;23.50;22.50;;;;;25.08;52.51;99282.13;5091291;28;9001;-81
2022/06/02 00:58:29;;;;;;;;;24.75;24.75;;;;;24.99;53.07;99285.38;5089509;28;8898;-83
2022/06/02 01:01:09;;;;;;;;;25.75;24.75;;;;;24.97;52.72;99287.28;5072744;28;8843;-84
2022/06/02 01:03:42;;;;;;;;;28.50;28.50;;;;;24.99;52.94;99288.03;5073453;28;8859;-83
2022/06/02 01:06:30;;;;;;;;;26.50;25.25;;;;;24.99;52.68;99280.03;5091236;28;8843;-82
2022/06/02 01:09:22;;;;;;;;;27.00;27.00;;;;;24.99;52.77;99277.38;5093283;28;8882;-81
2022/06/02 01:12:05;;;;;;;;;28.00;25.50;;;;;24.98;52.92;99265.84;5058312;28;8847;-83
2022/06/02 01:14:49;;;;;;;;;25.25;21.00;;;;;25.00;52.99;99265.75;5090509;28;8912;-84
2022/06/02 01:17:28;;;;;;;;;24.00;24.00;;;;;24.99;53.01;99266.69;5034012;28;8996;-82
2022/06/02 01:20:11;;;;;;;;;27.25;27.25;;;;;25.01;53.02;99262.13;5077478;28;8876;-83
2022/06/02 01:23:02;;;;;;;;;28.75;28.50;;;;;25.02;52.98;99269.19;5073480;28;8870;-84
2022/06/02 01:25:57;;;;;;;;;24.50;22.75;;;;;25.04;52.95;99267.25;5036661;28;8968;-83
2022/06/02 01:28:45;;;;;;;;;30.25;27.50;;;;;25.02;53.00;99258.50;4994756;28;8863;-81
2022/06/02 01:31:26;;;;;;;;;25.00;25.00;;;;;24.95;53.66;99254.50;4997743;28;8841;-83
2022/06/02 01:34:08;;;;;;;;;25.75;25.75;;;;;24.93;53.33;99259.94;5013898;28;8880;-84
2022/06/02 01:36:46;;;;;;;;;30.00;29.50;;;;;24.92;53.48;99254.75;5013433;28;8856;-80
2022/06/02 01:39:34;;;;;;;;;25.00;24.40;;;;;24.95;53.55;99259.84;4996287;28;8868;-81
2022/06/02 01:42:15;;;;;;;;;27.50;26.25;;;;;24.94;53.50;99266.16;5013000;28;8872;-82
2022/06/02 01:44:56;;;;;;;;;23.25;22.50;;;;;24.92;53.68;99266.25;5000613;28;8894;-83
2022/06/02 01:47:33;;;;;;;;;24.75;24.75;;;;;24.97;53.44;99263.28;5031617;28;8888;-82
2022/06/02 01:50:28;;;;;;;;;23.50;23.50;;;;;25.04;53.25;99267.25;5034173;28;8871;-82
2022/06/02 01:53:08;;;;;;;;;30.50;29.75;;;;;25.04;53.34;99256.59;4923377;28;10225;-82
2022/06/02 01:56:03;;;;;;;;;27.00;27.00;;;;;25.01;53.44;99257.66;4937467;28;8871;-84
2022/06/02 01:58:47;;;;;;;;;30.25;25.75;;;;;24.98;53.62;99260.50;4923500;29;10078;-83
2022/06/02 02:01:25;;;;;;;;;27.50;27.50;;;;;24.95;53.50;99266.03;4900291;29;8867;-84
2022/06/02 02:04:11;;;;;;;;;26.50;26.00;;;;;24.93;53.78;99257.28;4932742;29;8961;-84
2022/06/02 02:06:49;;;;;;;;;32.75;29.75;;;;;24.90;53.89;99260.16;4934809;29;8987;-81
2022/06/02 02:09:29;;;;;;;;;26.25;26.25;;;;;24.89;53.71;99253.94;4970154;28;8967;-82
2022/06/02 02:12:00;;;;;;;;;27.50;25.50;;;;;24.84;54.06;99253.41;4975140;28;8850;-81
2022/06/02 02:14:57;;;;;;;;;28.25;28.00;;;;;24.87;53.83;99257.69;4963705;28;8948;-83
2022/06/02 02:17:43;;;;;;;;;29.00;28.25;;;;;24.80;54.26;99249.22;4969099;28;9705;-82
2022/06/02 02:20:27;;;;;;;;;30.50;29.75;;;;;24.83;54.16;99254.34;4969546;28;8879;-80
2022/06/02 02:23:04;;;;;;;;;28.50;27.00;;;;;24.81;54.06;99250.06;4970093;28;8951;-82
2022/06/02 02:25:43;;;;;;;;;31.50;29.50;;;;;24.83;54.14;99249.00;4986400;28;8881;-82
2022/06/02 02:28:21;;;;;;;;;37.75;32.00;;;;;24.77;54.28;99245.91;4990093;28;8864;-82
2022/06/02 02:31:01;;;;;;;;;33.25;31.00;;;;;24.77;54.42;99246.75;5068088;28;8863;-83
2022/06/02 02:33:38;;;;;;;;;35.00;31.50;;;;;24.67;54.71;99233.16;5020516;28;8899;-83
2022/06/02 02:36:21;;;;;;;;;35.25;32.75;;;;;24.59;55.01;99235.44;5032814;28;8960;-82
2022/06/02 02:38:57;;;;;;;;;34.25;31.50;;;;;24.55;55.22;99236.59;5065153;28;8840;-83
2022/06/02 02:41:31;;;;;;;;;37.00;33.25;;;;;24.58;55.00;99240.88;5074850;28;8861;-81
2022/06/02 02:44:06;;;;;;;;;27.50;27.50;;;;;24.62;54.89;99242.41;5075699;28;9082;-83
2022/06/02 02:46:44;;;;;;;;;29.75;29.50;;;;;24.65;54.60;99243.06;5056090;28;8873;-82
2022/06/02 02:49:20;;;;;;;;;35.25;33.25;;;;;24.57;55.60;99249.81;5086503;28;8938;-83
2022/06/02 02:51:59;;;;;;;;;34.50;33.00;;;;;24.36;56.23;99252.84;5090601;28;8926;-85
2022/06/02 02:54:37;;;;;;;;;34.00;30.00;;;;;24.42;56.11;99252.44;5073604;28;8871;-82
2022/06/02 02:57:16;;;;;;;;;30.00;29.50;;;;;24.52;55.29;99252.78;5107096;28;8913;-83
2022/06/02 02:59:53;;;;;;;;;36.00;32.50;;;;;24.52;55.36;99252.78;5063088;28;8858;-82
2022/06/02 03:02:31;;;;;;;;;38.25;33.75;;;;;24.54;55.62;99263.34;5093710;28;8847;-84
2022/06/02 03:05:11;;;;;;;;;31.50;30.00;;;;;24.58;55.46;99257.72;5054352;28;8876;-81
2022/06/02 03:07:41;;;;;;;;;37.00;34.50;;;;;24.58;55.07;99262.22;5090206;28;8968;-82
2022/06/02 03:10:18;;;;;;;;;41.50;35.75;;;;;24.63;55.25;99266.31;5050657;28;8866;-83
2022/06/02 03:13:25;;;;;;;;;37.00;34.00;;;;;24.67;55.50;99257.16;5106124;28;8996;-82
2022/06/02 03:16:02;;;;;;;;;38.75;35.00;;;;;24.68;55.35;99266.00;5052304;28;9175;-83
2022/06/02 03:19:03;;;;;;;;;38.25;33.25;;;;;24.71;55.03;99269.34;5052710;28;8848;-80
2022/06/02 03:21:35;;;;;;;;;33.50;31.00;;;;;24.72;55.00;99264.84;5069321;28;8877;-82
2022/06/02 03:24:29;;;;;;;;;42.25;36.75;;;;;24.76;54.82;99266.34;5037235;28;8864;-83
2022/06/02 03:27:12;;;;;;;;;34.00;31.75;;;;;24.63;55.15;99260.97;5054318;28;8891;-82
2022/06/02 03:29:56;;;;;;;;;34.00;32.25;;;;;24.69;55.31;99270.41;5053888;28;8978;-82
2022/06/02 03:32:51;;;;;;;;;35.25;32.25;;;;;24.75;54.89;99270.00;5070151;28;8965;-83
2022/06/02 03:35:29;;;;;;;;;33.50;32.25;;;;;24.79;54.94;99265.31;5093012;28;8903;-81
2022/06/02 03:38:07;;;;;;;;;35.25;33.50;;;;;24.81;54.99;99272.25;5060101;28;8963;-82
2022/06/02 03:40:58;;;;;;;;;32.00;30.75;;;;;24.85;54.59;99276.44;5092154;28;8916;-83
2022/06/02 03:43:36;;;;;;;;;31.75;31.00;;;;;24.88;54.21;99272.75;5051264;28;8860;-82
2022/06/02 03:46:39;;;;;;;;;28.00;26.00;;;;;24.90;54.17;99265.50;5051877;28;8893;-82
2022/06/02 03:49:40;;;;;;;;;28.25;27.75;;;;;24.93;53.98;99273.28;5038825;28;8860;-82
2022/06/02 03:52:21;;;;;;;;;32.25;31.50;;;;;24.93;54.64;99267.09;5063359;28;8951;-82
2022/06/02 03:55:05;;;;;;;;;29.50;29.25;;;;;24.93;54.65;99262.63;5014494;28;8832;-83
2022/06/02 03:57:59;;;;;;;;;30.25;30.25;;;;;24.93;55.03;99265.28;5036215;28;8850;-81
2022/06/02 04:00:33;;;;;;;;;30.50;29.50;;;;;24.87;55.14;99274.53;5069533;28;8889;-84
2022/06/02 04:03:05;;;;;;;;;38.25;34.25;;;;;24.86;55.01;99269.31;5029642;28;9655;-84
2022/06/02 04:05:55;;;;;;;;;31.25;30.00;;;;;24.84;54.90;99280.09;5043213;28;8850;-82
2022/06/02 04:08:40;;;;;;;;;26.75;26.75;;;;;24.85;55.01;99278.25;5028910;28;8931;-83
2022/06/02 04:11:23;;;;;;;;;30.50;30.00;;;;;24.89;54.94;99279.78;5039302;28;8842;-82
2022/06/02 04:14:01;;;;;;;;;27.25;27.25;;;;;25.00;55.08;99285.28;5067514;28;8855;-83
2022/06/02 04:17:01;;;;;;;;;27.50;27.50;;;;;25.10;54.72;99278.41;5074636;28;8979;-83
2022/06/02 04:23:21;;;;;;;;;66.33;53.33;;;;;25.24;54.67;99266.84;5027247;28;8990;-81
2022/06/02 04:25:57;;;;;;;;;28.75;28.50;;;;;25.20;55.20;99273.31;5015819;28;9018;-79
2022/06/02 04:28:47;;;;;;;;;29.00;28.25;;;;;25.19;55.06;99268.94;5013934;28;9606;-81
2022/06/02 04:31:34;;;;;;;;;33.75;30.75;;;;;25.26;54.55;99272.94;5047367;28;8901;-81
2022/06/02 04:34:17;;;;;;;;;31.75;29.00;;;;;25.28;53.80;99271.03;5015430;28;8939;-82
2022/06/02 04:36:55;;;;;;;;;25.00;25.00;;;;;25.36;53.47;99269.66;5031895;28;8882;-83
2022/06/02 04:39:30;;;;;;;;;24.00;24.00;;;;;25.53;53.46;99271.22;5047370;28;8850;-80
2022/06/02 04:42:12;;;;;;;;;24.75;24.75;;;;;25.72;52.73;99278.84;5047389;28;8935;-83
2022/06/02 04:44:53;;;;;;;;;24.00;21.75;;;;;25.91;52.25;99286.47;5013143;28;8870;-82
2022/06/02 04:47:34;;;;;;;;;32.25;30.25;;;;;25.94;52.27;99287.16;5045859;28;9584;-81
2022/06/02 04:50:10;;;;;;;;;27.75;26.00;;;;;26.18;51.56;99286.41;5052179;28;9064;-80
2022/06/02 04:52:54;;;;;;;;;23.75;23.75;;;;;26.40;51.22;99283.94;5034581;28;8862;-82
2022/06/02 04:55:32;;;;;;;;;34.75;30.50;;;;;26.46;52.18;99290.69;5075966;28;8979;-81
2022/06/02 04:58:12;;;;;;;;;27.25;25.50;;;;;26.53;51.43;99297.31;5053807;28;9814;-81
2022/06/02 05:00:48;;;;;;;;;29.00;28.25;;;;;26.69;51.33;99305.13;5088998;28;8867;-79
2022/06/02 05:03:26;;;;;;;;;25.50;24.25;;;;;26.80;50.69;99294.50;5089282;28;8890;-82
2022/06/02 05:06:07;;;;;;;;;24.00;22.50;;;;;26.92;49.81;99297.28;5050020;28;9011;-81
2022/06/02 05:08:58;;;;;;;;;30.25;28.50;;;;;26.96;50.07;99296.09;5070474;28;8844;-83
2022/06/02 05:11:41;;;;;;;;;30.50;28.00;;;;;27.05;50.13;99300.75;5086622;28;8823;-80
2022/06/02 05:14:20;;;;;;;;;23.75;23.75;;;;;27.12;49.37;99290.47;5070193;28;8847;-80
2022/06/02 05:17:00;;;;;;;;;24.75;23.75;;;;;27.10;47.96;99293.25;5088568;28;8925;-81
2022/06/02 05:19:55;;;;;;;;;26.00;25.75;;;;;26.90;48.63;99293.84;5084206;28;8855;-80
2022/06/02 05:22:52;;;;;;;;;27.75;26.25;;;;;26.88;49.40;99298.47;5054301;28;8886;-82
2022/06/02 05:26:05;;;;;;;;;26.50;26.50;;;;;26.93;49.42;99302.50;5071391;28;8902;-81
2022/06/02 05:29:25;;;;;;;;;28.00;27.50;;;;;27.01;48.79;99308.19;5029693;28;8953;-84
2022/06/02 05:32:35;;;;;;;;;31.50;29.50;;;;;27.00;50.14;99308.28;5012843;28;8882;-81
2022/06/02 05:35:42;;;;;;;;;32.75;30.75;;;;;27.27;49.99;99317.97;5026282;28;8879;-82
2022/06/02 05:38:37;;;;;;;;;25.75;25.75;;;;;27.48;48.68;99313.69;5017039;28;8863;-78
2022/06/02 05:41:18;;;;;;;;;28.75;27.00;;;;;27.49;48.01;99311.91;4962860;28;8883;-79
2022/06/02 05:43:57;;;;;;;;;36.00;33.50;;;;;27.18;49.42;99311.44;5008248;28;8878;-81
2022/06/02 05:46:38;;;;;;;;;26.00;26.00;;;;;27.07;48.74;99309.56;5007978;28;8907;-81
2022/06/02 05:49:18;;;;;;;;;32.00;29.50;;;;;27.04;48.39;99310.63;4991350;28;8866;-80
2022/06/02 05:52:06;;;;;;;;;30.75;30.25;;;;;27.16;48.31;99316.91;5010142;28;8880;-82
2022/06/02 05:54:47;;;;;;;;;27.25;26.25;;;;;26.89;48.75;99316.25;4975559;28;8852;-81
2022/06/02 05:57:32;;;;;;;;;30.75;28.25;;;;;26.88;49.30;99319.88;4976547;28;8952;-81
2022/06/02 06:00:26;;;;;;;;;23.50;23.50;;;;;26.73;50.04;99321.81;5007940;28;8892;-80
2022/06/02 06:03:25;;;;;;;;;27.75;27.50;;;;;26.83;50.04;99329.09;5007981;28;8878;-81
2022/06/02 06:06:03;;;;;;;;;30.00;29.50;;;;;26.35;51.88;99320.88;5048096;28;8841;-79
2022/06/02 06:08:44;;;;;;;;;30.25;29.50;;;;;26.04;53.29;99325.63;5073045;28;8876;-81
2022/06/02 06:11:26;;;;;;;;;32.00;31.00;;;;;26.03;53.86;99331.06;5056348;28;8853;-83
2022/06/02 06:14:18;;;;;;;;;29.75;29.25;;;;;26.51;53.01;99338.50;5070552;28;8848;-82
2022/06/02 06:17:00;;;;;;;;;34.00;30.75;;;;;26.97;51.69;99335.25;5072591;28;8858;-82
2022/06/02 06:19:53;;;;;;;;;30.50;30.00;;;;;27.46;51.10;99333.53;5065964;28;8900;-79
2022/06/02 06:22:58;;;;;;;;;33.75;32.25;;;;;27.71;50.26;99341.47;5061895;28;8890;-80
2022/06/02 06:25:49;;;;;;;;;34.25;31.50;;;;;27.88;49.42;99350.06;5090708;28;8877;-80
2022/06/02 06:28:23;;;;;;;;;32.00;30.75;;;;;27.86;50.10;99343.94;5089657;28;9051;-81
2022/06/02 06:31:03;;;;;;;;;34.75;31.75;;;;;28.10;49.19;99342.13;5091018;28;8899;-80
2022/06/02 06:33:52;;;;;;;;;35.25;32.75;;;;;28.19;49.28;99340.56;5100211;28;8835;-81
2022/06/02 06:36:49;;;;;;;;;35.75;31.50;;;;;28.31;48.82;99346.81;5060564;28;8847;-81
2022/06/02 06:39:29;;;;;;;;;33.50;30.75;;;;;28.42;47.59;99344.13;5023629;28;9032;-81
2022/06/02 06:42:32;;;;;;;;;29.00;28.00;;;;;28.54;46.96;99336.97;5020651;28;8850;-80
2022/06/02 06:45:06;;;;;;;;;38.00;33.50;;;;;28.30;47.91;99354.00;5005959;28;10276;-82
2022/06/02 06:47:42;;;;;;;;;32.25;30.00;;;;;28.58;47.46;99344.69;5048872;28;8877;-79
2022/06/02 06:50:21;;;;;;;;;31.50;30.50;;;;;28.43;46.88;99345.88;5030766;28;8878;-78
2022/06/02 06:53:17;;;;;;;;;35.67;31.33;;;;;28.37;46.70;99352.56;5028627;28;8884;-80
2022/06/02 06:55:56;;;;;;;;;28.75;27.25;;;;;28.49;46.54;99358.78;5049330;28;9725;-81
2022/06/02 06:58:42;;;;;;;;;32.50;31.00;;;;;28.70;45.90;99355.44;5031552;28;8887;-83
2022/06/02 07:01:18;;;;;;;;;31.25;30.50;;;;;28.80;44.96;99358.22;5032093;28;8846;-82
2022/06/02 07:03:56;;;;;;;;;28.75;27.75;;;;;28.92;44.20;99351.88;4980102;28;8874;-81
2022/06/02 07:06:36;;;;;;;;;26.75;25.75;;;;;29.19;44.56;99353.34;5026980;28;8856;-82
2022/06/02 07:09:16;;;;;;;;;28.25;27.75;;;;;29.38;43.66;99361.63;5040580;28;8861;-81
2022/06/02 07:14:46;;;;;;;;;29.75;29.00;;;;;29.66;42.46;99365.59;5001917;28;8860;-82
2022/06/02 07:17:22;;;;;;;;;31.75;30.00;;;;;29.78;42.46;99365.56;5077772;28;9002;-79
2022/06/02 07:20:02;;;;;;;;;28.25;26.00;;;;;29.89;41.52;99374.44;5089384;28;8871;-73
2022/06/02 07:22:43;;;;;;;;;24.00;23.25;;;;;29.88;41.35;99372.72;5090228;28;8864;-76
2022/06/02 07:25:20;;;;;;;;;29.25;29.00;;;;;30.14;41.34;99375.06;5089880;28;8843;-77
2022/06/02 07:27:54;;;;;;;;;30.50;30.00;;;;;30.12;40.02;99379.72;5086569;28;9644;-78
2022/06/02 07:30:40;;;;;;;;;29.75;27.75;;;;;30.04;40.82;99376.81;5089614;28;8936;-78
2022/06/02 07:33:29;;;;;;;;;32.75;31.00;;;;;29.98;41.08;99380.88;5091475;28;8951;-78
2022/06/02 07:36:52;;;;;;;;;32.00;30.00;;;;;30.12;41.21;99385.09;5108766;28;8875;-79
2022/06/02 07:39:56;;;;;;;;;32.00;28.75;;;;;30.05;41.80;99389.28;5091473;28;8890;-76
2022/06/02 07:42:54;;;;;;;;;24.75;24.00;;;;;30.19;42.29;99385.41;5091718;28;8836;-79
2022/06/02 07:45:32;;;;;;;;;30.25;29.75;;;;;30.23;41.54;99384.19;5013911;28;8959;-79
2022/06/02 07:48:30;;;;;;;;;27.00;25.50;;;;;30.45;41.97;99388.59;5010346;28;8877;-75
2022/06/02 07:51:09;;;;;;;;;26.75;26.75;;;;;30.59;41.54;99385.59;4963925;28;8899;-77
2022/06/02 07:54:08;;;;;;;;;27.75;26.25;;;;;30.39;41.33;99384.59;4913707;29;8875;-72
2022/06/02 07:56:49;;;;;;;;;25.50;23.00;;;;;30.69;41.90;99393.72;4929051;29;8913;-73
2022/06/02 07:59:32;;;;;;;;;29.00;27.25;;;;;30.60;40.91;99392.66;4941369;28;8856;-73
2022/06/02 08:02:28;;;;;;;;;26.75;26.75;;;;;29.73;42.36;99399.03;4949119;28;8889;-73
2022/06/02 08:05:07;;;;;;;;;24.50;23.75;;;;;29.78;42.45;99401.38;4948872;28;8868;-76
2022/06/02 08:07:40;;;;;;;;;23.00;23.00;;;;;30.08;41.38;99397.94;4920054;28;8888;-74
2022/06/02 08:10:18;;;;;;;;;26.25;25.50;;;;;30.39;40.80;99399.91;4941724;29;9633;-75
2022/06/02 08:13:00;;;;;;;;;32.00;30.00;;;;;30.13;41.63;99402.91;4929221;28;8901;-76
2022/06/02 08:15:38;;;;;;;;;25.75;24.75;;;;;29.79;42.22;99397.69;4933520;28;8876;-77
2022/06/02 08:18:26;;;;;;;;;34.00;31.25;;;;;29.80;42.46;99398.56;4920729;28;8869;-77
2022/06/02 08:21:15;;;;;;;;;27.50;26.00;;;;;30.25;41.32;99395.66;4967647;28;9707;-77
2022/06/02 08:24:12;;;;;;;;;27.50;26.50;;;;;30.16;41.94;99405.38;5020460;28;9118;-76
2022/06/02 08:26:49;;;;;;;;;28.75;28.75;;;;;30.13;43.40;99413.69;5045126;28;8870;-74
2022/06/02 08:29:34;;;;;;;;;23.75;23.75;;;;;29.47;44.47;99409.25;5086865;28;8978;-78
2022/06/02 08:32:25;;;;;;;;;29.75;29.00;;;;;28.87;46.15;99422.03;5019598;28;9643;-76
2022/06/02 08:35:06;;;;;;;;;31.25;29.50;;;;;28.43;47.62;99422.78;5088570;28;8881;-76
2022/06/02 08:37:48;;;;;;;;;34.25;31.25;;;;;28.34;47.24;99435.94;5086918;28;8879;-77
2022/06/02 08:40:58;;;;;;;;;29.50;28.50;;;;;27.94;48.13;99432.69;5087111;28;8856;-75
2022/06/02 08:43:54;;;;;;;;;28.75;28.75;;;;;27.82;48.59;99445.16;5052768;28;9001;-74
2022/06/02 08:46:46;;;;;;;;;31.75;29.75;;;;;27.53;48.94;99444.63;5086397;28;8855;-75
2022/06/02 08:49:56;;;;;;;;;29.50;29.50;;;;;27.23;49.15;99444.00;5011646;28;8916;-76
2022/06/02 08:53:04;;;;;;;;;30.00;28.00;;;;;26.96;49.85;99446.81;4951223;28;8887;-78
2022/06/02 08:55:59;;;;;;;;;26.25;26.00;;;;;26.63;50.80;99453.56;4953298;28;8888;-75
2022/06/02 08:58:59;;;;;;;;;34.75;32.50;;;;;26.63;50.08;99458.03;4985917;28;9646;-74
2022/06/02 09:02:05;;;;;;;;;30.25;29.50;;;;;27.02;50.71;99442.88;4973559;28;8964;-74
2022/06/02 09:05:24;;;;;;;;;30.75;29.75;;;;;27.61;48.64;99447.59;4912888;29;8886;-77
2022/06/02 09:08:21;;;;;;;;;26.25;24.50;;;;;27.86;47.70;99451.16;4911477;29;8898;-73
2022/06/02 09:11:08;;;;;;;;;32.00;31.00;;;;;27.68;48.64;99448.88;4856350;29;9611;-75
2022/06/02 09:14:21;;;;;;;;;31.25;30.25;;;;;27.32;49.84;99445.22;4856466;29;8871;-73
2022/06/02 09:17:01;;;;;;;;;30.00;29.50;;;;;27.29;49.00;99444.56;4856582;29;8891;-75
2022/06/02 09:19:38;;;;;;;;;33.25;32.00;;;;;27.39;49.63;99449.16;4856819;29;8910;-72
2022/06/02 09:22:33;;;;;;;;;29.75;29.50;;;;;27.93;48.96;99452.44;4872571;29;8910;-72
2022/06/02 09:25:22;;;;;;;;;37.50;33.25;;;;;27.85;48.56;99454.81;4856001;29;8883;-76
2022/06/02 09:28:13;;;;;;;;;34.25;32.50;;;;;27.43;49.69;99455.16;4890253;29;8896;-74
2022/06/02 09:30:56;;;;;;;;;37.25;33.50;;;;;27.36;48.99;99454.72;4944522;28;8854;-75
2022/06/02 09:33:45;;;;;;;;;31.25;30.25;;;;;27.57;48.99;99452.31;4933348;28;8869;-76
2022/06/02 09:36:53;;;;;;;;;42.00;34.75;;;;;28.05;48.99;99448.84;4955455;28;8900;-76
2022/06/02 09:39:38;;;;;;;;;42.75;35.75;;;;;28.33;48.93;99454.81;4893315;29;8915;-73
2022/06/02 09:42:30;;;;;;;;;47.00;38.75;;;;;27.78;51.38;99454.41;4907840;29;8858;-75
2022/06/02 09:45:14;;;;;;;;;47.50;40.50;;;;;27.67;51.64;99455.19;4930874;29;8981;-77
2022/06/02 09:48:11;;;;;;;;;41.50;36.00;;;;;28.37;50.46;99450.94;4933335;28;8874;-74
2022/06/02 09:50:56;;;;;;;;;44.00;36.75;;;;;28.89;49.12;99448.78;4881294;29;8921;-74
2022/06/02 09:53:47;;;;;;;;;45.75;39.50;;;;;29.14;48.39;99440.50;4911633;29;8889;-76
2022/06/02 09:56:31;;;;;;;;;45.25;39.00;;;;;29.02;49.12;99451.31;4911038;29;8898;-74
2022/06/02 09:59:17;;;;;;;;;47.50;39.75;;;;;28.45;49.86;99459.25;4911804;29;8899;-77
2022/06/02 10:01:58;;;;;;;;;46.50;38.75;;;;;28.70;48.92;99460.09;4893472;29;9814;-77
2022/06/02 10:04:57;;;;;;;;;44.00;38.50;;;;;28.97;48.17;99455.22;4896424;29;8875;-75
2022/06/02 10:07:41;;;;;;;;;41.50;35.75;;;;;29.42;46.60;99453.56;4911782;29;9693;-74
2022/06/02 10:10:30;;;;;;;;;33.75;32.00;;;;;29.78;45.79;99448.91;4911443;29;8859;-74
2022/06/02 10:13:32;;;;;;;;;42.25;35.75;;;;;29.96;44.72;99455.44;4912182;29;8887;-76
2022/06/02 10:16:20;;;;;;;;;40.50;35.00;;;;;30.34;44.44;99458.63;4923013;28;8854;-74
2022/06/02 10:19:22;;;;;;;;;42.00;36.25;;;;;30.64;43.70;99453.34;5025404;28;8866;-76
2022/06/02 10:22:03;;;;;;;;;42.50;35.25;;;;;30.86;42.46;99455.00;4969699;28;8863;-75
2022/06/02 10:24:59;;;;;;;;;47.00;37.75;;;;;31.14;42.40;99451.81;4970310;28;8866;-75
2022/06/02 10:28:01;;;;;;;;;46.00;39.00;;;;;31.33;41.44;99459.13;5001220;28;8861;-75
2022/06/02 10:31:08;;;;;;;;;42.75;36.00;;;;;31.54;40.92;99451.81;4988217;28;8965;-76
2022/06/02 10:34:18;;;;;;;;;45.25;37.75;;;;;31.69;40.62;99460.38;4940818;28;9646;-77
2022/06/02 10:37:00;;;;;;;;;47.75;40.50;;;;;31.28;40.70;99454.97;4969392;28;8999;-71
2022/06/02 10:39:52;;;;;;;;;42.00;36.25;;;;;31.55;40.30;99452.66;4969348;28;8875;-75
2022/06/02 10:42:48;;;;;;;;;43.25;37.25;;;;;31.66;40.13;99456.13;4906943;29;9755;-74
2022/06/02 10:45:36;;;;;;;;;44.00;38.25;;;;;31.55;39.33;99452.66;4862594;29;8954;-73
2022/06/02 10:48:45;;;;;;;;;45.25;36.25;;;;;31.13;40.13;99453.63;4911205;29;9692;-72
2022/06/02 10:51:45;;;;;;;;;45.75;39.25;;;;;29.96;41.96;99449.22;4836181;29;8983;-73
2022/06/02 10:54:37;;;;;;;;;43.25;37.25;;;;;30.35;42.29;99447.72;4837258;29;8879;-71
2022/06/02 10:57:45;;;;;;;;;49.00;40.00;;;;;30.67;41.58;99447.69;4820800;29;8899;-74
2022/06/02 11:00:24;;;;;;;;;46.25;38.25;;;;;31.12;39.68;99437.63;4817725;29;8885;-76
2022/06/02 11:03:42;;;;;;;;;45.75;39.50;;;;;31.54;39.68;99437.50;4819438;29;8894;-77
2022/06/02 11:06:49;;;;;;;;;43.25;36.50;;;;;31.91;39.55;99439.53;4819006;29;8980;-75
2022/06/02 11:10:04;;;;;;;;;43.75;36.00;;;;;32.17;37.97;99439.88;4820044;29;8886;-77
2022/06/02 11:13:11;;;;;;;;;44.75;37.25;;;;;32.23;37.91;99445.56;4777401;29;8993;-80
2022/06/02 11:16:08;;;;;;;;;41.25;35.50;;;;;32.49;37.95;99444.13;4774891;29;8871;-78
2022/06/02 11:19:02;;;;;;;;;44.50;36.75;;;;;32.79;36.78;99443.09;4782174;29;8949;-78
2022/06/02 11:22:05;;;;;;;;;41.75;36.75;;;;;32.32;37.67;99443.00;4817775;29;8882;-76
2022/06/02 11:28:45;;;;;;;;;42.75;36.75;;;;;32.84;37.17;99435.41;4766410;29;8899;-77
2022/06/02 11:31:47;;;;;;;;;45.00;39.00;;;;;32.07;37.38;99426.38;4769910;29;8914;-80
2022/06/02 11:34:38;;;;;;;;;44.50;35.75;;;;;31.63;38.52;99425.91;4783560;29;9037;-76
2022/06/02 11:37:42;;;;;;;;;40.50;35.75;;;;;32.18;36.72;99430.81;4786948;29;8922;-76
2022/06/02 11:40:43;;;;;;;;;41.75;36.75;;;;;32.55;36.68;99430.91;4836460;29;8895;-76
2022/06/02 11:43:15;;;;;;;;;43.75;37.75;;;;;33.00;36.27;99429.38;4835709;29;8909;-78
2022/06/02 11:46:28;;;;;;;;;42.75;37.50;;;;;31.79;37.20;99426.19;4844370;29;8896;-76
2022/06/02 11:49:33;;;;;;;;;43.50;37.25;;;;;31.50;38.17;99428.84;4919597;29;8892;-77
2022/06/02 11:52:39;;;;;;;;;47.00;38.50;;;;;31.16;38.89;99426.41;4872723;29;8928;-76
2022/06/02 11:55:23;;;;;;;;;43.75;37.00;;;;;31.29;38.69;99420.81;4872385;29;8901;-76
2022/06/02 11:58:25;;;;;;;;;40.50;35.25;;;;;31.77;38.57;99425.47;4856993;29;8912;-77
2022/06/02 12:01:35;;;;;;;;;43.25;35.25;;;;;31.95;37.44;99422.94;4839954;29;8869;-77
2022/06/02 12:04:32;;;;;;;;;51.75;43.75;;;;;31.55;39.18;99425.72;4834494;29;8905;-79
2022/06/02 12:07:36;;;;;;;;;42.75;37.50;;;;;32.32;38.28;99413.31;4909457;29;8887;-78
2022/06/02 12:10:45;;;;;;;;;44.00;37.75;;;;;33.01;37.43;99420.28;4888449;29;8887;-78
2022/06/02 12:13:33;;;;;;;;;45.75;38.00;;;;;33.32;35.27;99420.03;4894367;29;8958;-77
2022/06/02 12:16:24;;;;;;;;;45.00;38.50;;;;;32.81;35.70;99423.03;4849806;29;8946;-77
2022/06/02 12:19:21;;;;;;;;;46.50;39.75;;;;;33.55;34.58;99413.19;4967089;28;8880;-76
2022/06/02 12:22:00;;;;;;;;;48.25;41.00;;;;;33.77;33.79;99414.66;4909138;29;8888;-77
2022/06/02 12:25:10;;;;;;;;;46.50;39.50;;;;;31.93;37.52;99421.38;4910499;29;9615;-75
2022/06/02 12:28:15;;;;;;;;;46.25;38.75;;;;;32.41;36.65;99421.38;4900720;29;8865;-77
2022/06/02 12:30:58;;;;;;;;;44.00;37.50;;;;;33.10;36.29;99413.13;4949006;28;8890;-74
2022/06/02 12:33:51;;;;;;;;;46.50;40.25;;;;;32.76;36.35;99424.47;4967033;28;8850;-77
2022/06/02 12:36:41;;;;;;;;;46.25;39.75;;;;;32.93;36.33;99426.44;4932796;28;8854;-74
2022/06/02 12:40:07;;;;;;;;;46.50;39.50;;;;;32.52;36.52;99420.38;4933333;28;8862;-76
2022/06/02 12:43:23;;;;;;;;;46.25;39.00;;;;;32.13;36.69;99425.81;4937446;29;9696;-74
2022/06/02 12:46:07;;;;;;;;;47.50;39.75;;;;;31.59;37.72;99422.63;4927834;29;8853;-75
2022/06/02 12:49:03;;;;;;;;;48.00;40.25;;;;;31.02;39.06;99411.50;4932826;29;8884;-75
2022/06/02 12:51:52;;;;;;;;;46.75;39.75;;;;;31.03;38.80;99420.41;4888576;29;8856;-75
2022/06/02 12:54:56;;;;;;;;;45.00;39.00;;;;;30.43;40.05;99417.47;4922990;28;8905;-77
2022/06/02 12:58:06;;;;;;;;;45.00;39.00;;;;;31.29;39.06;99415.41;4943624;29;8950;-76
2022/06/02 13:00:55;;;;;;;;;47.00;39.75;;;;;32.02;37.24;99421.44;4918957;29;8887;-75
2022/06/02 13:04:04;;;;;;;;;41.25;35.75;;;;;33.33;36.17;99416.34;4866368;29;8892;-75
2022/06/02 13:07:03;;;;;;;;;45.00;38.50;;;;;34.28;34.46;99414.16;4852307;29;8887;-74
2022/06/02 13:10:09;;;;;;;;;44.25;37.75;;;;;33.31;34.69;99427.31;4891247;29;8847;-77
2022/06/02 13:13:07;;;;;;;;;43.25;37.75;;;;;33.24;34.64;99422.66;4800697;29;8897;-76
2022/06/02 13:16:02;;;;;;;;;46.25;40.00;;;;;33.04;34.63;99425.38;4783731;29;8914;-77